Time;durP1;ratioP1;P1;durP2;ratioP2;P2;SDS_P1;SDS_P2;PMS_P1;PMS_P2;Temp;Humidity;BMP_temperature;BMP_pressure;BME280_temperature;BME280_humidity;BME280_pressure;Samples;Min_cycle;Max_cycle;Signal;HPM_P1;HPM_P2
2021/07/08 00:02:09;;;;;;;1.65;1.55;;;25.20;46.50;;;;;;4997640;28;20281;-49
2021/07/08 00:04:35;;;;;;;1.45;1.35;;;25.10;46.50;;;;;;4992383;28;20206;-49
2021/07/08 00:07:02;;;;;;;1.63;1.52;;;25.20;46.50;;;;;;4990715;28;20214;-48
2021/07/08 00:09:28;;;;;;;1.42;1.33;;;25.20;46.50;;;;;;4991233;28;20218;-50
2021/07/08 00:11:55;;;;;;;1.38;1.27;;;25.10;46.40;;;;;;4990775;28;20315;-49
2021/07/08 00:14:21;;;;;;;1.58;1.48;;;25.20;46.50;;;;;;4990253;28;20235;-48
2021/07/08 00:16:48;;;;;;;1.40;1.30;;;25.10;46.40;;;;;;5004220;28;20295;-53
2021/07/08 00:19:14;;;;;;;1.38;1.25;;;25.10;46.40;;;;;;4990310;28;20210;-48
2021/07/08 00:21:41;;;;;;;1.63;1.52;;;25.10;46.40;;;;;;4991171;28;20520;-50
2021/07/08 00:24:08;;;;;;;1.50;1.40;;;25.10;46.40;;;;;;4993953;28;20207;-49
2021/07/08 00:26:34;;;;;;;1.35;1.30;;;25.10;46.40;;;;;;4994431;28;20306;-49
2021/07/08 00:29:01;;;;;;;1.50;1.40;;;25.10;46.40;;;;;;5003680;28;20210;-49
2021/07/08 00:31:27;;;;;;;1.95;1.52;;;25.10;46.40;;;;;;4995067;28;20215;-51
2021/07/08 00:33:54;;;;;;;1.60;1.50;;;25.20;46.50;;;;;;5000752;28;20314;-53
2021/07/08 00:36:20;;;;;;;1.35;1.25;;;25.20;46.50;;;;;;4991566;28;20341;-52
2021/07/08 00:38:47;;;;;;;1.70;1.60;;;25.10;46.40;;;;;;4991150;28;20208;-50
2021/07/08 00:41:13;;;;;;;1.50;1.40;;;25.10;46.40;;;;;;4997839;28;20202;-53
2021/07/08 00:43:40;;;;;;;1.50;1.40;;;25.10;46.30;;;;;;4989553;28;20294;-50
2021/07/08 00:46:06;;;;;;;1.50;1.40;;;25.10;46.40;;;;;;4995250;28;20223;-46
2021/07/08 00:48:33;;;;;;;1.50;1.40;;;25.10;46.40;;;;;;4990531;28;20207;-49
2021/07/08 00:50:59;;;;;;;1.40;1.30;;;25.20;46.50;;;;;;5002895;28;20208;-47
2021/07/08 00:53:26;;;;;;;1.58;1.48;;;25.10;46.40;;;;;;4989348;28;20326;-52
2021/07/08 00:55:52;;;;;;;1.60;1.50;;;25.10;46.30;;;;;;5001811;28;20290;-50
2021/07/08 00:58:18;;;;;;;1.50;1.40;;;25.10;46.30;;;;;;4998947;28;20289;-52
2021/07/08 01:00:45;;;;;;;1.45;1.35;;;25.10;46.30;;;;;;4989339;28;20544;-48
2021/07/08 01:03:11;;;;;;;1.50;1.40;;;25.10;46.30;;;;;;4990600;28;20323;-49
2021/07/08 01:05:38;;;;;;;2.10;1.40;;;25.10;46.40;;;;;;4993069;28;20203;-47
2021/07/08 01:08:04;;;;;;;1.50;1.40;;;25.10;46.40;;;;;;5005029;28;20656;-55
2021/07/08 01:10:31;;;;;;;1.30;1.20;;;25.10;46.30;;;;;;5004729;28;20207;-49
2021/07/08 01:12:57;;;;;;;1.27;1.17;;;25.10;46.30;;;;;;4992769;28;20239;-52
2021/07/08 01:15:24;;;;;;;1.40;1.30;;;25.10;46.30;;;;;;4995588;28;20204;-50
2021/07/08 01:17:50;;;;;;;1.42;1.33;;;25.10;46.30;;;;;;5011886;28;20226;-49
2021/07/08 01:20:18;;;;;;;1.45;1.35;;;25.10;46.30;;;;;;4994672;28;20286;-51
2021/07/08 01:22:44;;;;;;;1.67;1.58;;;25.10;46.30;;;;;;4993744;28;20246;-49
2021/07/08 01:25:11;;;;;;;1.40;1.30;;;25.10;46.30;;;;;;5000346;28;20209;-51
2021/07/08 01:27:37;;;;;;;1.42;1.33;;;25.10;46.30;;;;;;4996560;28;20211;-47
2021/07/08 01:30:03;;;;;;;1.40;1.30;;;25.10;46.30;;;;;;4996980;28;20314;-51
2021/07/08 01:32:30;;;;;;;1.42;1.33;;;25.10;46.30;;;;;;4993236;28;20215;-48
2021/07/08 01:34:56;;;;;;;1.50;1.40;;;25.10;46.30;;;;;;5002481;28;20196;-49
2021/07/08 01:37:23;;;;;;;1.50;1.40;;;25.10;46.30;;;;;;4999661;28;20516;-48
2021/07/08 01:39:49;;;;;;;1.52;1.42;;;25.10;46.30;;;;;;5000593;28;20207;-51
2021/07/08 01:42:16;;;;;;;1.65;1.55;;;25.10;46.40;;;;;;5008937;28;20306;-50
2021/07/08 01:44:42;;;;;;;1.40;1.30;;;25.10;46.40;;;;;;4996609;28;20208;-48
2021/07/08 01:47:09;;;;;;;2.00;1.40;;;25.10;46.40;;;;;;5012036;28;20207;-47
2021/07/08 01:49:35;;;;;;;1.23;1.20;;;25.10;46.40;;;;;;4994831;28;20200;-57
2021/07/08 01:52:02;;;;;;;2.00;1.30;;;25.10;46.40;;;;;;5013296;28;20758;-51
2021/07/08 01:54:28;;;;;;;1.67;1.58;;;25.10;46.40;;;;;;4992063;28;20263;-50
2021/07/08 01:56:54;;;;;;;1.38;1.27;;;25.10;46.40;;;;;;4993538;28;20220;-49
2021/07/08 01:59:21;;;;;;;1.40;1.30;;;25.10;46.50;;;;;;4975775;28;20233;-52
2021/07/08 02:01:47;;;;;;;1.50;1.40;;;25.10;46.50;;;;;;4990267;28;20247;-50
2021/07/08 02:04:14;;;;;;;1.50;1.40;;;25.10;46.50;;;;;;4992093;28;20684;-49
2021/07/08 02:06:40;;;;;;;1.42;1.33;;;25.10;46.50;;;;;;4992642;28;20319;-51
2021/07/08 02:09:07;;;;;;;1.52;1.42;;;25.10;46.50;;;;;;4993148;28;20302;-51
2021/07/08 02:11:33;;;;;;;1.35;1.25;;;25.10;46.50;;;;;;4995672;28;20230;-51
2021/07/08 02:14:00;;;;;;;1.40;1.30;;;25.10;46.50;;;;;;4993827;28;20238;-51
2021/07/08 02:16:26;;;;;;;1.30;1.20;;;25.10;46.50;;;;;;5011872;28;20727;-49
2021/07/08 02:18:53;;;;;;;1.45;1.35;;;25.10;46.50;;;;;;4994091;28;20210;-47
2021/07/08 02:21:19;;;;;;;1.30;1.20;;;25.10;46.50;;;;;;4993898;28;20685;-50
2021/07/08 02:23:46;;;;;;;1.52;1.42;;;25.10;46.50;;;;;;4991584;28;20586;-50
2021/07/08 02:26:12;;;;;;;1.80;1.70;;;25.10;46.50;;;;;;4993626;28;20744;-50
2021/07/08 02:28:39;;;;;;;1.50;1.40;;;25.10;46.50;;;;;;4992728;28;20223;-49
2021/07/08 02:31:05;;;;;;;1.65;1.42;;;25.10;46.60;;;;;;5007790;28;20289;-50
2021/07/08 02:33:32;;;;;;;1.60;1.50;;;25.10;46.60;;;;;;4991355;28;20323;-50
2021/07/08 02:35:58;;;;;;;1.40;1.30;;;25.10;46.60;;;;;;4992082;28;20211;-48
2021/07/08 02:38:24;;;;;;;1.40;1.30;;;25.10;46.60;;;;;;4991901;28;20216;-53
2021/07/08 02:40:51;;;;;;;1.83;1.50;;;25.10;46.60;;;;;;5005545;28;20294;-49
2021/07/08 02:43:17;;;;;;;2.45;1.60;;;25.10;46.60;;;;;;4993359;28;20322;-53
2021/07/08 02:45:44;;;;;;;1.77;1.67;;;25.10;46.60;;;;;;4994724;28;20749;-51
2021/07/08 02:48:10;;;;;;;1.40;1.30;;;25.10;46.60;;;;;;5000992;28;20286;-50
2021/07/08 02:50:37;;;;;;;1.55;1.45;;;25.10;46.60;;;;;;5002564;28;20712;-48
2021/07/08 02:53:03;;;;;;;1.50;1.35;;;25.10;47.30;;;;;;4990131;28;20328;-49
2021/07/08 02:55:30;;;;;;;1.40;1.30;;;25.10;46.60;;;;;;4997004;28;20249;-52
2021/07/08 02:57:58;;;;;;;1.50;1.40;;;25.10;47.30;;;;;;5008206;28;20205;-47
2021/07/08 03:00:25;;;;;;;1.40;1.30;;;25.10;46.60;;;;;;5003397;28;20208;-50
2021/07/08 03:02:51;;;;;;;1.42;1.33;;;25.10;46.60;;;;;;4997703;28;20732;-49
2021/07/08 03:05:18;;;;;;;1.52;1.20;;;25.10;46.60;;;;;;4990793;28;20589;-49
2021/07/08 03:07:44;;;;;;;1.40;1.30;;;25.10;46.60;;;;;;4993153;28;20561;-49
2021/07/08 03:10:11;;;;;;;1.40;1.30;;;25.10;46.60;;;;;;5002059;28;20269;-47
2021/07/08 03:12:37;;;;;;;1.23;1.20;;;25.10;46.60;;;;;;5008442;28;20554;-53
2021/07/08 03:15:04;;;;;;;1.20;1.20;;;25.10;46.60;;;;;;4990633;28;20232;-51
2021/07/08 03:17:30;;;;;;;1.65;1.23;;;25.10;46.60;;;;;;4992344;28;20203;-49
2021/07/08 03:19:56;;;;;;;1.48;1.30;;;25.10;46.60;;;;;;4998923;28;20195;-50
2021/07/08 03:22:23;;;;;;;1.33;1.23;;;25.10;46.60;;;;;;5001493;28;20306;-53
2021/07/08 03:24:49;;;;;;;1.67;1.40;;;25.10;46.70;;;;;;4990774;28;20211;-49
2021/07/08 03:27:16;;;;;;;1.48;1.38;;;25.10;46.70;;;;;;5001120;28;20723;-52
2021/07/08 03:29:43;;;;;;;1.20;1.13;;;25.10;46.60;;;;;;4988180;28;20226;-52
2021/07/08 03:32:09;;;;;;;1.23;1.13;;;25.10;46.60;;;;;;4992061;28;20233;-51
2021/07/08 03:34:35;;;;;;;2.38;1.30;;;25.10;46.60;;;;;;4989567;28;20231;-52
2021/07/08 03:37:02;;;;;;;2.25;1.40;;;25.10;46.60;;;;;;4994885;28;20306;-48
2021/07/08 03:39:28;;;;;;;1.27;1.17;;;25.10;46.60;;;;;;4996397;28;20245;-49
2021/07/08 03:41:55;;;;;;;1.08;1.08;;;25.10;46.60;;;;;;5009291;28;20322;-51
2021/07/08 03:44:21;;;;;;;1.48;1.33;;;25.10;46.60;;;;;;4991043;28;20204;-53
2021/07/08 03:46:48;;;;;;;1.38;1.27;;;25.10;46.60;;;;;;4991480;28;20210;-52
2021/07/08 03:49:15;;;;;;;1.58;1.20;;;25.10;46.60;;;;;;4990855;28;20209;-50
2021/07/08 03:51:41;;;;;;;1.50;1.40;;;25.10;46.60;;;;;;5011064;28;20223;-51
2021/07/08 03:54:08;;;;;;;1.38;1.27;;;25.10;46.50;;;;;;4991747;28;20238;-48
2021/07/08 03:56:34;;;;;;;1.40;1.30;;;25.10;46.50;;;;;;5003575;28;20292;-51
2021/07/08 03:59:01;;;;;;;1.27;1.00;;;25.10;46.50;;;;;;4987764;28;20567;-47
2021/07/08 04:01:27;;;;;;;1.30;1.20;;;25.10;46.50;;;;;;4991379;28;20251;-49
2021/07/08 04:03:54;;;;;;;1.45;1.30;;;25.10;46.50;;;;;;4990297;28;20555;-48
2021/07/08 04:06:20;;;;;;;1.20;1.20;;;25.10;46.50;;;;;;5007106;28;20539;-48
2021/07/08 04:08:47;;;;;;;1.00;1.00;;;25.10;46.50;;;;;;4998546;28;20506;-50
2021/07/08 04:11:13;;;;;;;1.33;1.23;;;25.10;46.50;;;;;;5002400;28;20318;-46
2021/07/08 04:13:39;;;;;;;1.10;1.10;;;25.10;46.50;;;;;;4993899;28;20227;-50
2021/07/08 04:16:06;;;;;;;1.35;1.25;;;25.10;46.50;;;;;;4990158;28;20286;-52
2021/07/08 04:18:32;;;;;;;1.30;1.20;;;25.10;46.40;;;;;;4993249;28;20200;-50
2021/07/08 04:20:59;;;;;;;1.33;1.23;;;25.10;46.40;;;;;;4999278;28;20211;-49
2021/07/08 04:23:25;;;;;;;1.30;1.20;;;25.10;46.40;;;;;;4990017;28;20291;-51
2021/07/08 04:25:52;;;;;;;1.35;1.20;;;25.10;46.40;;;;;;4991876;28;20204;-51
2021/07/08 04:28:19;;;;;;;1.10;1.00;;;25.10;46.40;;;;;;4992616;28;20216;-51
2021/07/08 04:30:45;;;;;;;1.45;1.17;;;25.10;46.40;;;;;;4999068;28;20210;-51
2021/07/08 04:33:11;;;;;;;1.50;1.40;;;25.10;46.40;;;;;;4974344;28;20222;-49
2021/07/08 04:35:39;;;;;;;1.33;1.20;;;25.10;46.40;;;;;;4981563;28;20340;-48
2021/07/08 04:38:06;;;;;;;1.55;1.30;;;25.10;46.40;;;;;;4990522;28;20677;-48
2021/07/08 04:40:33;;;;;;;1.15;1.05;;;25.10;46.40;;;;;;4993771;28;20196;-48
2021/07/08 04:42:59;;;;;;;1.45;1.20;;;25.10;46.40;;;;;;4994584;28;20268;-50
2021/07/08 04:45:25;;;;;;;1.80;1.60;;;25.10;46.40;;;;;;5002045;28;20203;-47
2021/07/08 04:47:52;;;;;;;1.40;1.30;;;25.10;46.40;;;;;;5001825;28;20206;-46
2021/07/08 04:50:18;;;;;;;1.45;1.35;;;25.10;46.40;;;;;;4997212;28;20244;-47
2021/07/08 04:52:45;;;;;;;1.50;1.40;;;25.00;46.30;;;;;;4999937;28;20226;-46
2021/07/08 04:55:11;;;;;;;1.35;1.25;;;25.10;46.40;;;;;;5000497;28;20247;-47
2021/07/08 04:57:38;;;;;;;1.70;1.42;;;25.10;46.30;;;;;;4993684;28;20203;-46
2021/07/08 05:00:04;;;;;;;1.30;1.20;;;25.10;46.40;;;;;;4995989;28;20294;-47
2021/07/08 05:02:31;;;;;;;1.65;1.15;;;25.00;46.30;;;;;;5003591;28;20640;-48
2021/07/08 05:04:57;;;;;;;1.85;1.27;;;25.10;46.30;;;;;;4993702;28;20577;-50
2021/07/08 05:07:24;;;;;;;1.33;1.23;;;25.00;46.30;;;;;;4997958;28;20551;-47
2021/07/08 05:09:50;;;;;;;1.33;1.10;;;25.10;46.40;;;;;;5010853;28;20238;-52
2021/07/08 05:12:16;;;;;;;1.77;1.13;;;25.10;46.40;;;;;;5003503;28;20225;-50
2021/07/08 05:14:43;;;;;;;1.50;1.40;;;25.00;46.40;;;;;;5000237;28;20399;-49
2021/07/08 05:17:10;;;;;;;1.20;1.10;;;25.10;46.40;;;;;;4993495;28;20295;-49
2021/07/08 05:19:36;;;;;;;1.30;1.20;;;25.00;46.30;;;;;;4992948;28;20305;-52
2021/07/08 05:22:03;;;;;;;1.25;1.15;;;25.10;46.40;;;;;;4993816;28;20598;-49
2021/07/08 05:24:29;;;;;;;1.30;1.23;;;25.10;46.30;;;;;;4997966;28;20243;-50
2021/07/08 05:26:56;;;;;;;1.38;1.27;;;25.10;46.40;;;;;;4993265;28;20247;-46
2021/07/08 05:29:23;;;;;;;1.25;1.15;;;25.10;46.40;;;;;;4993072;28;20219;-49
2021/07/08 05:31:49;;;;;;;1.25;1.17;;;25.10;46.40;;;;;;4994214;28;20673;-49
2021/07/08 05:34:16;;;;;;;1.17;1.08;;;25.10;46.40;;;;;;4993782;28;20234;-47
2021/07/08 05:36:42;;;;;;;1.40;1.30;;;25.00;46.30;;;;;;4993336;28;20553;-50
2021/07/08 05:39:09;;;;;;;1.63;1.52;;;25.10;46.40;;;;;;4997280;28;20235;-50
2021/07/08 05:41:35;;;;;;;1.35;1.25;;;25.00;46.30;;;;;;4992530;28;20267;-51
2021/07/08 05:44:02;;;;;;;1.33;1.23;;;25.10;46.40;;;;;;4994295;28;20206;-52
2021/07/08 05:46:28;;;;;;;1.20;1.10;;;25.10;46.30;;;;;;4991002;28;20294;-49
2021/07/08 05:48:55;;;;;;;1.60;1.20;;;25.10;46.40;;;;;;4992526;28;20196;-49
2021/07/08 05:51:21;;;;;;;1.35;1.25;;;25.10;46.40;;;;;;5007543;28;20262;-52
2021/07/08 05:53:48;;;;;;;1.20;1.10;;;25.10;46.40;;;;;;5010827;28;20205;-48
2021/07/08 05:56:14;;;;;;;1.30;1.20;;;25.10;46.30;;;;;;4993815;28;20236;-49
2021/07/08 05:58:41;;;;;;;1.30;1.20;;;25.10;46.30;;;;;;4992863;28;20200;-50
2021/07/08 06:01:07;;;;;;;1.48;1.38;;;25.00;46.30;;;;;;4978494;28;20237;-51
2021/07/08 06:03:34;;;;;;;1.17;1.17;;;25.10;46.30;;;;;;5002564;28;20203;-50
2021/07/08 06:06:00;;;;;;;1.40;1.10;;;25.00;46.30;;;;;;5013217;28;20207;-48
2021/07/08 06:08:26;;;;;;;1.40;1.30;;;25.10;46.40;;;;;;4993718;28;20210;-50
2021/07/08 06:10:53;;;;;;;1.40;1.30;;;25.00;46.30;;;;;;4992447;28;20227;-52
2021/07/08 06:13:19;;;;;;;1.42;1.33;;;25.10;46.40;;;;;;5007644;28;20212;-47
2021/07/08 06:15:46;;;;;;;2.15;1.40;;;25.00;46.50;;;;;;4999301;28;20243;-51
2021/07/08 06:18:12;;;;;;;1.10;1.10;;;25.10;46.40;;;;;;4997064;28;20282;-49
2021/07/08 06:20:39;;;;;;;1.38;1.23;;;25.00;46.30;;;;;;5001907;28;20303;-51
2021/07/08 06:23:05;;;;;;;1.30;1.20;;;25.10;46.30;;;;;;4992463;28;20204;-51
2021/07/08 06:25:32;;;;;;;1.52;1.10;;;25.10;46.30;;;;;;4991522;28;20214;-47
2021/07/08 06:27:58;;;;;;;1.15;1.13;;;25.10;46.30;;;;;;4995469;28;20260;-53
2021/07/08 06:30:25;;;;;;;1.15;1.15;;;25.10;46.30;;;;;;4994152;28;20231;-51
2021/07/08 06:32:51;;;;;;;1.65;1.20;;;25.10;46.40;;;;;;4991779;28;20247;-52
2021/07/08 06:35:18;;;;;;;1.50;1.40;;;25.00;46.30;;;;;;4989775;28;20242;-50
2021/07/08 06:37:45;;;;;;;2.63;1.40;;;25.10;46.30;;;;;;4991444;28;20251;-48
2021/07/08 06:40:11;;;;;;;4.45;1.48;;;25.00;46.50;;;;;;4984783;28;20295;-54
2021/07/08 06:42:38;;;;;;;2.92;1.40;;;25.00;46.60;;;;;;4989640;28;20303;-52
2021/07/08 06:45:05;;;;;;;1.30;1.20;;;25.10;46.30;;;;;;4990005;28;20215;-47
2021/07/08 06:47:38;;;;;;;2.25;1.30;;;25.10;46.10;;;;;;4989066;28;20864;-48
2021/07/08 06:50:05;;;;;;;4.28;1.40;;;25.10;46.30;;;;;;4990545;28;20199;-50
2021/07/08 06:52:31;;;;;;;3.78;2.25;;;25.10;46.20;;;;;;4989681;28;20224;-52
2021/07/08 06:54:58;;;;;;;4.95;1.95;;;25.20;46.90;;;;;;4992094;28;20517;-52
2021/07/08 06:57:24;;;;;;;2.53;1.88;;;25.10;46.90;;;;;;4990294;28;20295;-57
2021/07/08 06:59:51;;;;;;;3.25;2.05;;;25.20;48.60;;;;;;4991829;28;20283;-55
2021/07/08 07:02:17;;;;;;;3.97;2.22;;;25.10;48.60;;;;;;4988677;28;20318;-57
2021/07/08 07:04:43;;;;;;;5.10;2.28;;;25.10;49.30;;;;;;4981338;28;20216;-56
2021/07/08 07:07:10;;;;;;;4.55;2.63;;;25.10;49.60;;;;;;4991094;28;20625;-56
2021/07/08 07:09:36;;;;;;;5.65;3.10;;;25.10;49.90;;;;;;4991654;28;20548;-53
2021/07/08 07:12:03;;;;;;;11.90;10.60;;;25.10;50.10;;;;;;4992279;28;20311;-54
2021/07/08 07:14:29;;;;;;;12.75;10.20;;;24.00;51.50;;;;;;4996423;28;20227;-51
2021/07/08 07:16:56;;;;;;;11.10;9.70;;;23.60;52.30;;;;;;5010667;28;20690;-54
2021/07/08 07:19:22;;;;;;;11.60;10.40;;;23.10;54.20;;;;;;4991908;28;20660;-51
2021/07/08 07:21:49;;;;;;;12.07;10.60;;;22.40;55.80;;;;;;4991360;28;20224;-52
2021/07/08 07:24:15;;;;;;;11.82;10.73;;;22.10;56.70;;;;;;4992744;28;20202;-52
2021/07/08 07:26:42;;;;;;;14.65;12.85;;;22.10;56.70;;;;;;4996426;28;20676;-54
2021/07/08 07:29:08;;;;;;;15.23;13.75;;;21.70;58.90;;;;;;4992831;28;20343;-54
2021/07/08 07:31:35;;;;;;;15.50;14.05;;;21.20;60.40;;;;;;4992977;28;20230;-53
2021/07/08 07:34:01;;;;;;;15.18;13.68;;;21.10;60.90;;;;;;4991247;28;20196;-53
2021/07/08 07:36:28;;;;;;;11.90;10.68;;;21.30;61.00;;;;;;4987596;28;20228;-54
2021/07/08 07:38:54;;;;;;;10.60;9.43;;;22.00;59.20;;;;;;4983503;28;20299;-52
2021/07/08 07:41:21;;;;;;;10.52;9.57;;;22.70;57.60;;;;;;4990228;28;20310;-48
2021/07/08 07:43:48;;;;;;;9.85;8.85;;;23.10;56.10;;;;;;4979027;28;20219;-48
2021/07/08 07:46:14;;;;;;;9.35;7.93;;;23.40;55.30;;;;;;4990208;28;20298;-51
2021/07/08 07:48:41;;;;;;;9.32;7.80;;;23.60;54.70;;;;;;4990175;28;20206;-51
2021/07/08 07:51:07;;;;;;;8.68;7.85;;;23.80;53.90;;;;;;4989829;28;20311;-51
2021/07/08 07:53:34;;;;;;;8.13;7.43;;;23.90;53.60;;;;;;4990742;28;20247;-53
2021/07/08 07:56:00;;;;;;;8.48;7.65;;;24.00;53.10;;;;;;4976855;28;20235;-53
2021/07/08 07:58:27;;;;;;;8.45;7.65;;;24.10;52.90;;;;;;4988337;28;20204;-51
2021/07/08 08:00:55;;;;;;;8.23;7.43;;;24.20;53.40;;;;;;4989492;28;20227;-50
2021/07/08 08:03:21;;;;;;;10.63;7.75;;;24.30;53.10;;;;;;4984546;28;20346;-52
2021/07/08 08:05:56;;;;;;;8.10;7.35;;;24.30;52.90;;;;;;4990497;28;20643;-50
2021/07/08 08:08:30;;;;;;;7.28;6.65;;;24.30;52.80;;;;;;4988485;28;20196;-52
2021/07/08 08:10:56;;;;;;;8.68;7.82;;;24.40;52.70;;;;;;4991143;28;20291;-50
2021/07/08 08:13:23;;;;;;;7.80;7.10;;;24.40;52.80;;;;;;4981901;28;20212;-57
2021/07/08 08:15:50;;;;;;;9.20;8.40;;;24.40;52.70;;;;;;4981719;28;20759;-51
2021/07/08 08:18:17;;;;;;;8.15;7.45;;;24.40;52.80;;;;;;4989586;28;20214;-50
2021/07/08 08:20:43;;;;;;;7.55;6.80;;;24.50;52.80;;;;;;4990214;28;20215;-50
2021/07/08 08:23:10;;;;;;;7.65;6.85;;;24.50;51.80;;;;;;4989048;28;20668;-49
2021/07/08 08:25:37;;;;;;;8.38;7.57;;;24.50;51.30;;;;;;4986068;28;20575;-52
2021/07/08 08:28:03;;;;;;;8.25;7.65;;;24.60;51.80;;;;;;4984934;28;20263;-51
2021/07/08 08:30:30;;;;;;;7.93;7.05;;;24.60;51.80;;;;;;4989456;28;20227;-51
2021/07/08 08:32:56;;;;;;;8.73;8.00;;;24.60;52.00;;;;;;4982910;28;20717;-50
2021/07/08 08:35:22;;;;;;;8.02;7.10;;;24.60;52.40;;;;;;4990117;28;20586;-50
2021/07/08 08:37:49;;;;;;;7.68;6.90;;;24.60;52.30;;;;;;4984768;28;20239;-53
2021/07/08 08:40:15;;;;;;;10.45;7.57;;;24.60;51.50;;;;;;4984596;28;20286;-50
2021/07/08 08:42:42;;;;;;;8.13;6.95;;;24.60;52.30;;;;;;4990525;28;20210;-51
2021/07/08 08:45:11;;;;;;;7.22;6.57;;;24.60;52.00;;;;;;4990949;28;20206;-56
2021/07/08 08:47:38;;;;;;;7.30;6.60;;;24.70;51.70;;;;;;4990459;28;20204;-51
2021/07/08 08:50:04;;;;;;;7.82;7.05;;;24.70;51.60;;;;;;4989638;28;20302;-50
2021/07/08 08:52:31;;;;;;;7.63;6.32;;;24.70;51.70;;;;;;4986381;28;20222;-51
2021/07/08 08:54:57;;;;;;;7.75;7.05;;;24.70;51.70;;;;;;4990757;28;20234;-54
2021/07/08 08:57:24;;;;;;;8.23;6.85;;;24.70;51.20;;;;;;4985998;28;20211;-51
2021/07/08 08:59:50;;;;;;;6.35;5.85;;;24.70;50.70;;;;;;4987011;28;20306;-55
2021/07/08 09:02:18;;;;;;;7.20;6.50;;;24.70;50.40;;;;;;4991323;28;20200;-48
2021/07/08 09:04:44;;;;;;;7.38;6.72;;;24.70;50.30;;;;;;4989596;28;20677;-55
2021/07/08 09:07:11;;;;;;;7.10;6.50;;;24.70;50.70;;;;;;4991067;28;20220;-52
2021/07/08 09:09:37;;;;;;;7.35;6.65;;;24.80;50.40;;;;;;4984552;28;20207;-57
2021/07/08 09:12:04;;;;;;;7.28;6.65;;;24.80;50.40;;;;;;4988428;28;20303;-54
2021/07/08 09:14:30;;;;;;;6.93;6.32;;;24.80;50.20;;;;;;4989800;28;20215;-54
2021/07/08 09:16:56;;;;;;;6.63;6.13;;;24.80;50.20;;;;;;4990933;28;20192;-58
2021/07/08 09:19:24;;;;;;;6.85;6.35;;;24.80;50.30;;;;;;4990728;28;20295;-59
2021/07/08 09:21:52;;;;;;;7.32;6.72;;;24.80;50.40;;;;;;4985949;28;20204;-57
2021/07/08 09:24:18;;;;;;;7.47;6.88;;;24.80;50.40;;;;;;4989311;28;20211;-55
2021/07/08 09:26:45;;;;;;;7.15;6.55;;;24.90;50.50;;;;;;4994316;28;20579;-58
2021/07/08 09:29:11;;;;;;;7.55;6.95;;;24.90;50.30;;;;;;4994133;28;20295;-57
2021/07/08 09:31:38;;;;;;;7.60;7.00;;;24.90;50.10;;;;;;4993911;28;20274;-57
2021/07/08 09:34:04;;;;;;;7.07;6.53;;;24.90;50.10;;;;;;4993146;28;20222;-57
2021/07/08 09:36:30;;;;;;;6.97;6.38;;;24.80;50.10;;;;;;4987891;28;20242;-58
2021/07/08 09:38:57;;;;;;;7.63;6.93;;;24.90;49.80;;;;;;4987046;28;20208;-57
2021/07/08 09:41:25;;;;;;;7.70;7.00;;;24.90;49.90;;;;;;4993789;28;20220;-58
2021/07/08 09:43:51;;;;;;;7.22;6.63;;;24.90;50.20;;;;;;4993388;28;20206;-58
2021/07/08 09:46:18;;;;;;;7.50;6.90;;;24.90;49.90;;;;;;4987558;28;20216;-53
2021/07/08 09:48:44;;;;;;;7.60;7.00;;;24.90;49.80;;;;;;4992814;28;20290;-54
2021/07/08 09:51:11;;;;;;;7.68;7.07;;;24.90;49.70;;;;;;4994046;28;20231;-52
2021/07/08 09:53:37;;;;;;;7.55;6.85;;;24.90;49.60;;;;;;4993294;28;20200;-53
2021/07/08 09:56:08;;;;;;;7.53;6.93;;;24.90;49.60;;;;;;4993030;28;20251;-48
2021/07/08 09:58:34;;;;;;;7.05;6.45;;;24.90;49.50;;;;;;4993947;28;20195;-56
2021/07/08 10:01:01;;;;;;;8.27;7.57;;;24.90;49.20;;;;;;4992362;28;20249;-56
2021/07/08 10:03:27;;;;;;;7.78;7.10;;;25.00;50.20;;;;;;4992360;28;20204;-52
2021/07/08 10:05:54;;;;;;;7.85;7.15;;;24.90;49.50;;;;;;4993132;28;20215;-53
2021/07/08 10:08:21;;;;;;;7.80;7.20;;;25.00;49.60;;;;;;4993559;28;20216;-49
2021/07/08 10:10:48;;;;;;;7.80;7.10;;;25.00;49.40;;;;;;4992946;28;20215;-52
2021/07/08 10:13:15;;;;;;;8.23;7.55;;;25.00;49.40;;;;;;4992446;28;20296;-50
2021/07/08 10:15:41;;;;;;;7.90;7.30;;;25.00;49.20;;;;;;4992520;28;20666;-52
2021/07/08 10:18:08;;;;;;;7.82;7.22;;;25.00;49.20;;;;;;4993343;28;20208;-55
2021/07/08 10:20:34;;;;;;;7.82;7.22;;;25.00;49.30;;;;;;4993238;28;20235;-55
2021/07/08 10:23:01;;;;;;;8.10;7.43;;;25.00;49.10;;;;;;4992259;28;20203;-53
2021/07/08 10:25:27;;;;;;;8.68;7.97;;;25.00;49.00;;;;;;4992460;28;20251;-54
2021/07/08 10:27:54;;;;;;;7.68;7.07;;;25.00;49.20;;;;;;4992136;28;20223;-54
2021/07/08 10:30:22;;;;;;;8.30;7.60;;;25.00;48.90;;;;;;4990618;28;20306;-54
2021/07/08 10:32:48;;;;;;;8.70;8.00;;;25.00;49.20;;;;;;4988456;28;20203;-52
2021/07/08 10:35:15;;;;;;;8.48;7.78;;;25.00;49.40;;;;;;4992610;28;20236;-55
2021/07/08 10:37:43;;;;;;;8.30;7.60;;;25.00;49.00;;;;;;4989074;28;20632;-53
2021/07/08 10:40:10;;;;;;;8.90;8.20;;;25.00;49.60;;;;;;4990587;28;20251;-51
2021/07/08 10:42:36;;;;;;;8.57;7.95;;;25.10;49.40;;;;;;4992072;28;20271;-53
2021/07/08 10:45:03;;;;;;;8.90;8.20;;;25.00;49.70;;;;;;4989126;28;20196;-52
2021/07/08 10:47:29;;;;;;;8.90;8.10;;;25.00;49.60;;;;;;4983131;28;20238;-52
2021/07/08 10:49:55;;;;;;;8.20;7.60;;;25.00;49.60;;;;;;4991291;28;20216;-50
2021/07/08 10:52:22;;;;;;;8.18;7.47;;;25.10;49.50;;;;;;4992126;28;20307;-52
2021/07/08 10:54:48;;;;;;;8.55;7.90;;;25.10;49.40;;;;;;4985923;28;20251;-51
2021/07/08 10:57:15;;;;;;;8.38;7.68;;;25.00;49.70;;;;;;4990468;28;20326;-54
2021/07/08 10:59:42;;;;;;;7.95;7.35;;;25.10;49.90;;;;;;4988967;28;20224;-53
2021/07/08 11:02:09;;;;;;;8.68;7.97;;;25.10;49.40;;;;;;4988467;28;20208;-49
2021/07/08 11:04:35;;;;;;;7.95;7.28;;;25.10;49.40;;;;;;4991679;28;20246;-50
2021/07/08 11:07:02;;;;;;;8.88;8.13;;;25.10;49.40;;;;;;4989879;28;20208;-47
2021/07/08 11:09:28;;;;;;;7.32;6.72;;;25.10;49.80;;;;;;4987637;28;20229;-53
2021/07/08 11:11:55;;;;;;;9.10;8.20;;;25.10;49.30;;;;;;4989605;28;20210;-50
2021/07/08 11:14:24;;;;;;;8.07;7.38;;;25.10;50.00;;;;;;4988606;28;20552;-52
2021/07/08 11:16:50;;;;;;;8.60;7.90;;;25.10;49.20;;;;;;4981455;28;20673;-51
2021/07/08 11:19:17;;;;;;;8.05;6.82;;;25.10;48.60;;;;;;4979700;28;20231;-51
2021/07/08 11:21:43;;;;;;;8.18;7.40;;;25.10;49.20;;;;;;4982152;28;20210;-50
2021/07/08 11:24:10;;;;;;;7.82;7.10;;;25.20;49.60;;;;;;4978337;28;20215;-53
2021/07/08 11:26:36;;;;;;;6.90;6.38;;;25.10;49.40;;;;;;4982424;28;20212;-51
2021/07/08 11:29:03;;;;;;;7.38;6.65;;;25.20;49.20;;;;;;4982218;28;20222;-51
2021/07/08 11:31:29;;;;;;;7.57;6.80;;;25.20;49.00;;;;;;4980390;28;20214;-49
2021/07/08 11:33:55;;;;;;;13.70;6.90;;;25.20;48.70;;;;;;4980832;28;20208;-52
2021/07/08 11:36:24;;;;;;;7.20;6.63;;;25.20;48.80;;;;;;4982045;28;20775;-49
2021/07/08 11:38:50;;;;;;;7.28;6.68;;;25.20;48.60;;;;;;4982763;28;20216;-55
2021/07/08 11:41:17;;;;;;;6.70;6.15;;;25.20;48.60;;;;;;4980243;28;20226;-54
2021/07/08 11:43:43;;;;;;;7.25;6.55;;;25.20;48.60;;;;;;4981270;28;20280;-51
2021/07/08 11:46:10;;;;;;;6.78;6.18;;;25.20;48.70;;;;;;4981088;28;20212;-54
2021/07/08 11:48:36;;;;;;;6.43;5.93;;;25.20;48.60;;;;;;4979864;28;20200;-53
2021/07/08 11:51:03;;;;;;;6.85;6.30;;;25.20;48.60;;;;;;4983794;28;20223;-54
2021/07/08 11:53:29;;;;;;;7.30;6.70;;;25.20;48.60;;;;;;4981164;28;20210;-52
2021/07/08 11:55:56;;;;;;;7.10;6.45;;;25.20;48.70;;;;;;4979365;28;20226;-53
2021/07/08 11:58:23;;;;;;;7.18;6.65;;;25.20;49.40;;;;;;4980085;28;20208;-51
2021/07/08 12:00:49;;;;;;;7.35;6.75;;;25.20;49.70;;;;;;4983571;28;20248;-50
2021/07/08 12:03:15;;;;;;;6.72;6.22;;;25.20;49.50;;;;;;4980448;28;20627;-49
2021/07/08 12:05:42;;;;;;;6.88;6.28;;;25.20;49.30;;;;;;4981308;28;20212;-52
2021/07/08 12:08:09;;;;;;;6.82;6.32;;;25.20;49.10;;;;;;4980289;28;20732;-50
2021/07/08 12:10:35;;;;;;;6.38;5.88;;;25.20;48.90;;;;;;4979413;28;20858;-52
2021/07/08 12:13:02;;;;;;;6.68;6.18;;;25.20;49.10;;;;;;4980613;28;20258;-51
2021/07/08 12:15:28;;;;;;;6.78;6.28;;;25.20;49.40;;;;;;4980774;28;20212;-51
2021/07/08 12:17:55;;;;;;;6.95;6.35;;;25.20;49.50;;;;;;4980514;28;20287;-47
2021/07/08 12:20:21;;;;;;;6.78;6.28;;;25.20;49.20;;;;;;4982726;28;20334;-50
2021/07/08 12:22:48;;;;;;;7.00;6.43;;;25.20;49.30;;;;;;4982840;28;20203;-50
2021/07/08 12:25:14;;;;;;;6.78;6.28;;;25.20;49.10;;;;;;4983002;28;20291;-53
2021/07/08 12:27:41;;;;;;;6.93;6.35;;;25.20;49.20;;;;;;4980688;28;20230;-52
2021/07/08 12:30:07;;;;;;;7.78;7.15;;;25.20;49.40;;;;;;4980155;28;20518;-48
2021/07/08 12:32:34;;;;;;;6.47;5.97;;;25.20;49.30;;;;;;4979637;28;20196;-50
2021/07/08 12:35:00;;;;;;;6.20;5.70;;;25.20;49.30;;;;;;4981543;28;20241;-47
2021/07/08 12:37:27;;;;;;;8.80;7.07;;;25.20;49.60;;;;;;4980473;28;20253;-50
2021/07/08 12:39:54;;;;;;;6.57;6.07;;;25.20;49.70;;;;;;4980712;28;20247;-50
2021/07/08 12:42:20;;;;;;;6.43;5.93;;;25.20;49.30;;;;;;4980759;28;20824;-48